createdAt,value
2023-03-02T00:05:14.572Z,11.50
2023-03-02T00:13:20.131Z,12.10
2023-03-02T00:21:28.280Z,11.30
2023-03-02T00:29:33.650Z,11.50
2023-03-02T00:37:41.884Z,10.90
2023-03-02T00:45:48.029Z,10.10
2023-03-02T00:53:56.037Z,9.80
2023-03-02T01:02:02.865Z,9.50
2023-03-02T01:10:14.468Z,9.60
2023-03-02T01:18:20.884Z,9.70
2023-03-02T01:26:29.184Z,9.60
2023-03-02T01:34:34.830Z,9.60
2023-03-02T01:42:50.103Z,9.80
2023-03-02T01:50:56.191Z,9.90
2023-03-02T01:59:08.564Z,9.60
2023-03-02T02:07:14.319Z,9.80
2023-03-02T02:15:24.224Z,9.90
2023-03-02T02:23:32.927Z,9.80
2023-03-02T02:31:46.105Z,9.90
2023-03-02T02:39:53.873Z,10.60
2023-03-02T02:48:03.023Z,10.90
2023-03-02T02:56:10.974Z,11.00
2023-03-02T03:04:23.596Z,11.10
2023-03-02T03:12:31.680Z,11.20
2023-03-02T03:20:41.338Z,10.70
2023-03-02T03:28:46.937Z,10.40
2023-03-02T03:36:55.382Z,10.30
2023-03-02T03:45:01.349Z,10.20
2023-03-02T03:53:09.796Z,10.30
2023-03-02T04:01:15.414Z,10.00
2023-03-02T04:09:24.213Z,9.80
2023-03-02T04:17:31.311Z,9.70
2023-03-02T04:25:39.665Z,9.90
2023-03-02T04:33:50.734Z,10.10
2023-03-02T04:41:59.102Z,10.20
2023-03-02T04:50:04.659Z,10.20
2023-03-02T04:58:12.909Z,10.00
2023-03-02T05:06:19.139Z,10.10
2023-03-02T05:14:28.183Z,10.40
2023-03-02T05:22:33.558Z,10.40
2023-03-02T05:30:41.799Z,9.50
2023-03-02T05:38:47.474Z,9.50
2023-03-02T05:46:55.508Z,9.40
2023-03-02T05:55:00.829Z,9.60
2023-03-02T06:03:09.141Z,10.10
2023-03-02T06:11:15.647Z,10.50
2023-03-02T06:19:23.832Z,10.20
2023-03-02T06:27:29.603Z,10.90
2023-03-02T06:35:37.995Z,11.20
2023-03-02T06:43:43.532Z,11.70
2023-03-02T06:51:51.613Z,12.00
2023-03-02T06:59:57.013Z,12.50
2023-03-02T07:08:05.191Z,13.30
2023-03-02T07:16:12.247Z,13.60
2023-03-02T07:24:22.548Z,14.10
2023-03-02T07:32:28.370Z,12.20
2023-03-02T07:40:38.050Z,12.20
2023-03-02T07:48:43.551Z,11.90
2023-03-02T07:56:52.122Z,12.40
2023-03-02T08:04:57.524Z,12.70
2023-03-02T08:13:07.457Z,12.50
2023-03-02T08:21:18.630Z,12.40
2023-03-02T08:29:27.154Z,12.00
2023-03-02T08:37:32.672Z,13.80
2023-03-02T08:45:40.911Z,12.90
2023-03-02T08:53:50.661Z,12.50
2023-03-02T09:01:58.732Z,12.50
2023-03-02T09:10:04.197Z,12.50
2023-03-02T09:18:12.416Z,13.70
2023-03-02T09:26:17.902Z,13.70
2023-03-02T09:34:26.962Z,14.50
2023-03-02T09:42:58.893Z,15.00
2023-03-02T09:51:20.516Z,19.80
2023-03-02T09:59:30.474Z,24.00
2023-03-02T10:07:40.993Z,25.50
2023-03-02T10:15:58.337Z,25.20
2023-03-02T10:24:13.744Z,26.70
2023-03-02T10:32:23.852Z,25.50
2023-03-02T10:40:42.526Z,25.60
2023-03-02T10:48:52.288Z,25.10
2023-03-02T10:57:02.500Z,24.50
2023-03-02T11:05:26.867Z,23.20
2023-03-02T11:13:37.598Z,22.50
2023-03-02T11:21:46.844Z,22.00
2023-03-02T11:30:00.656Z,21.10
2023-03-02T11:38:18.976Z,17.30
2023-03-02T11:46:30.803Z,15.80
2023-03-02T11:54:44.319Z,15.30
2023-03-02T12:03:05.672Z,15.60
2023-03-02T12:11:31.288Z,15.30
2023-03-02T12:19:46.600Z,15.10
2023-03-02T12:27:54.375Z,14.60
2023-03-02T12:36:16.289Z,14.60
2023-03-02T12:44:38.942Z,15.00
2023-03-02T12:53:02.358Z,14.60
2023-03-02T13:01:08.581Z,14.50
2023-03-02T13:09:20.443Z,14.30
2023-03-02T13:17:29.716Z,13.90
2023-03-02T13:25:39.729Z,14.00
2023-03-02T13:33:49.560Z,14.10
2023-03-02T13:42:02.022Z,13.90
2023-03-02T13:50:10.609Z,14.00
2023-03-02T13:58:44.591Z,14.00
2023-03-02T14:07:01.629Z,13.70
2023-03-02T14:15:16.688Z,14.10
2023-03-02T14:23:23.305Z,13.70
2023-03-02T14:31:31.761Z,13.80
2023-03-02T14:39:43.232Z,14.10
2023-03-02T14:47:51.550Z,14.50
2023-03-02T14:55:57.163Z,14.60
2023-03-02T15:04:05.310Z,14.30
2023-03-02T15:12:11.351Z,14.60
2023-03-02T15:20:20.318Z,14.70
2023-03-02T15:28:25.773Z,14.50
2023-03-02T15:36:35.498Z,14.00
2023-03-02T15:44:40.965Z,12.90
2023-03-02T15:52:49.555Z,13.00
2023-03-02T16:00:59.078Z,12.90
2023-03-02T16:09:08.088Z,12.50
2023-03-02T16:17:13.717Z,12.50
2023-03-02T16:25:21.821Z,12.40
2023-03-02T16:33:27.432Z,12.50
2023-03-02T16:41:36.305Z,12.30
2023-03-02T16:49:41.832Z,12.20
2023-03-02T16:57:50.723Z,12.10
2023-03-02T17:06:01.518Z,12.10
2023-03-02T17:14:09.601Z,12.90
2023-03-02T17:22:15.616Z,12.70
2023-03-02T17:30:24.573Z,12.70
2023-03-02T17:38:30.284Z,12.90
2023-03-02T17:46:38.392Z,12.90
2023-03-02T17:54:44.263Z,13.00
2023-03-02T18:02:53.481Z,12.40
2023-03-02T18:11:02.245Z,12.00
2023-03-02T18:19:10.598Z,12.10
2023-03-02T18:27:16.645Z,12.40
2023-03-02T18:35:25.162Z,11.90
2023-03-02T18:43:32.098Z,12.00
2023-03-02T18:51:40.881Z,12.10
2023-03-02T18:59:46.583Z,12.40
2023-03-02T19:07:55.654Z,12.20
2023-03-02T19:16:02.252Z,12.00
2023-03-02T19:24:15.280Z,12.20
2023-03-02T19:32:21.317Z,12.40
2023-03-02T19:40:30.814Z,12.70
2023-03-02T19:48:37.134Z,12.60
2023-03-02T19:56:54.041Z,12.50
2023-03-02T20:04:59.617Z,12.60
2023-03-02T20:13:08.108Z,12.80
2023-03-02T20:21:13.672Z,12.20
2023-03-02T20:29:24.020Z,12.50
2023-03-02T20:37:30.410Z,12.30
2023-03-02T20:45:38.781Z,12.40
2023-03-02T20:53:47.408Z,12.30
2023-03-02T21:01:56.660Z,12.20
2023-03-02T21:10:02.340Z,12.30
2023-03-02T21:18:10.725Z,12.40
2023-03-02T21:26:17.800Z,12.60
2023-03-02T21:34:26.064Z,12.60
2023-03-02T21:42:31.769Z,12.60
2023-03-02T21:50:41.710Z,12.60
2023-03-02T21:58:47.512Z,12.60
2023-03-02T22:06:55.486Z,12.50
2023-03-02T22:15:04.387Z,12.50
2023-03-02T22:23:17.096Z,12.60
2023-03-02T22:31:24.510Z,12.10
2023-03-02T22:39:35.980Z,12.30
2023-03-02T22:47:42.366Z,12.50
2023-03-02T22:55:51.589Z,12.30
2023-03-02T23:04:03.860Z,12.50
2023-03-02T23:12:21.034Z,12.60
2023-03-02T23:20:27.110Z,12.60
2023-03-02T23:28:35.447Z,12.40
2023-03-02T23:36:40.886Z,11.90
2023-03-02T23:44:48.985Z,11.80
2023-03-02T23:52:54.650Z,11.90
